createdAt,value
2022-08-05T00:09:12.958Z,37.981
2022-08-05T00:24:24.377Z,37.954
2022-08-05T00:39:27.499Z,38.34
2022-08-05T00:54:39.416Z,38.698
2022-08-05T01:09:41.774Z,35.991
2022-08-05T01:24:44.051Z,37.512
2022-08-05T01:39:47.902Z,36.905
2022-08-05T01:54:52.808Z,36.658
2022-08-05T02:09:55.305Z,35.97
2022-08-05T02:24:57.585Z,40.571
2022-08-05T02:40:02.426Z,40.662
2022-08-05T02:55:05.647Z,43.229
2022-08-05T03:10:13.239Z,41.093
2022-08-05T03:26:03.881Z,45.06
2022-08-05T03:41:38.694Z,47.999
2022-08-05T03:56:47.937Z,49.633
2022-08-05T04:11:52.822Z,50.02
2022-08-05T04:26:55.203Z,49.562
2022-08-05T04:42:01.787Z,51.941
2022-08-05T04:57:06.076Z,52.202
2022-08-05T05:12:08.336Z,52.807
2022-08-05T05:27:10.780Z,53.922
2022-08-05T05:42:16.949Z,52.515
2022-08-05T05:57:23.306Z,56.242
2022-08-05T06:12:27.143Z,54.878
2022-08-05T06:28:10.719Z,55.704
2022-08-05T06:43:51.484Z,55.513
2022-08-05T06:59:01.766Z,54.026
2022-08-05T07:14:04.277Z,56.343
2022-08-05T07:29:06.626Z,56.252
2022-08-05T07:44:14.014Z,54.89
2022-08-05T07:59:23.382Z,56.307
2022-08-05T08:14:33.876Z,58.194
2022-08-05T08:30:06.513Z,55.695
2022-08-05T08:45:30.047Z,56.858
2022-08-05T09:00:33.118Z,57.911
2022-08-05T09:15:37.090Z,56.746
2022-08-05T09:30:39.846Z,56.795
2022-08-05T09:46:06.379Z,56.617
2022-08-05T10:01:14.774Z,56.45
2022-08-05T10:16:18.085Z,57.419
2022-08-05T10:33:02.201Z,55.883
2022-08-05T10:48:31.332Z,54.849
2022-08-05T11:03:35.914Z,55.005
2022-08-05T11:18:38.982Z,55.922
2022-08-05T11:33:49.371Z,55.988
2022-08-05T11:48:51.638Z,57.583
2022-08-05T12:03:55.740Z,57.118
2022-08-05T12:18:58.513Z,58.074
2022-08-05T12:34:00.708Z,56.952
2022-08-05T12:49:05.870Z,59.519
2022-08-05T13:04:20.872Z,61.673
2022-08-05T13:19:23.870Z,57.938
2022-08-05T13:34:26.420Z,57.091
2022-08-05T13:49:28.706Z,59.81
2022-08-05T14:04:37.661Z,56.848
2022-08-05T14:19:54.114Z,52.961
2022-08-05T14:34:58.375Z,56.228
2022-08-05T14:50:04.875Z,56.484
2022-08-05T15:05:20.064Z,47.234
2022-08-05T15:20:24.873Z,53.393
2022-08-05T15:35:27.543Z,49.646
2022-08-05T15:50:38.562Z,47.065
2022-08-05T16:05:41.717Z,43.724
2022-08-05T16:20:44.065Z,42.679
2022-08-05T16:35:52.795Z,42.234
2022-08-05T16:50:55.629Z,40.062
2022-08-05T17:05:59.438Z,39.565
2022-08-05T17:21:02.088Z,38.111
2022-08-05T17:36:32.799Z,36.858
2022-08-05T17:51:40.379Z,36.171
2022-08-05T18:06:43.005Z,34.216
2022-08-05T18:22:09.297Z,32.895
2022-08-05T18:37:33.402Z,31.787
2022-08-05T18:52:37.385Z,30.743
2022-08-05T19:07:45.417Z,30.419
2022-08-05T19:22:49.186Z,30.475
2022-08-05T19:38:06.187Z,29.242
2022-08-05T19:53:10.964Z,30.479
2022-08-05T20:08:13.273Z,28.534
2022-08-05T20:23:16.642Z,28.001
2022-08-05T20:38:26.702Z,27.071
2022-08-05T20:53:36.494Z,27.992
2022-08-05T21:08:42.385Z,26.877
2022-08-05T21:23:46.616Z,27.449
2022-08-05T21:38:49.009Z,27.406
2022-08-05T21:53:59.453Z,27.445
2022-08-05T22:09:14.575Z,25.054
2022-08-05T22:24:40.145Z,23.474
2022-08-05T22:39:43.625Z,22.219
2022-08-05T22:54:48.974Z,21.433
2022-08-05T23:09:56.993Z,22.017
2022-08-05T23:25:04.044Z,20.335
2022-08-05T23:40:10.889Z,19.77
2022-08-05T23:55:13.975Z,20.354
